This is the latest recevied weather packets stored in our database for station/object K6TTR. If no packets are shown the sender has not sent any weather packets the latest 10 day(s).
| Time | Temp. | Humidity | Pressure | Rain* | Wind** | Luminosity | Snow |
|---|---|---|---|---|---|---|---|
| 1777422224 | 11.67° C | 54% | 1019.6 hPa | 0 mm | - | 77 W/m² | - |
| 1777421930 | 12.22° C | 52% | 1019.5 hPa | 0 mm | - | 77 W/m² | - |
| 1777421615 | 12.22° C | 49% | 1019.5 hPa | 0 mm | - | 54 W/m² | - |
| 1777421319 | 12.22° C | 47% | 1019.5 hPa | 0 mm | - | 46 W/m² | - |
| 1777421025 | 12.22° C | 48% | 1019.4 hPa | 0 mm | - | 47 W/m² | - |
| 1777420730 | 12.78° C | 46% | 1019.4 hPa | 0 mm | - | 51 W/m² | - |
| 1777420415 | 12.78° C | 46% | 1019.3 hPa | 0 mm | - | 47 W/m² | - |
| 1777420120 | 13.33° C | 43% | 1019.2 hPa | 0 mm | - | 69 W/m² | - |
| 1777419825 | 13.33° C | 42% | 1019.2 hPa | 0 mm | - | 91 W/m² | - |
| 1777419531 | 13.89° C | 41% | 1019.2 hPa | 0 mm | - | 114 W/m² | - |
| 1777419216 | 14.44° C | 40% | 1019 hPa | 0 mm | - | 329 W/m² | - |
| 1777418920 | 14.44° C | 38% | 1019 hPa | 0 mm | - | 279 W/m² | - |
| 1777418627 | 14.44° C | 38% | 1018.8 hPa | 0 mm | - | 309 W/m² | - |
| 1777418313 | 14.44° C | 38% | 1018.7 hPa | 0 mm | - | 599 W/m² | - |
| 1777418017 | 14.44° C | 39% | 1018.8 hPa | 0 mm | - | 552 W/m² | - |
| 1777417724 | 13.89° C | 42% | 1018.8 hPa | 0 mm | - | 598 W/m² | - |
| 1777417414 | 13.89° C | 42% | 1018.9 hPa | 0 mm | - | 554 W/m² | - |
| 1777417118 | 13.33° C | 43% | 1018.9 hPa | 0 mm | - | 613 W/m² | - |
| 1777416825 | 13.33° C | 42% | 1018.9 hPa | 0 mm | - | 257 W/m² | - |
| 1777416530 | 13.33° C | 42% | 1019 hPa | 0 mm | - | 185 W/m² | - |
| 1777416214 | 13.33° C | 42% | 1019.1 hPa | 0 mm | - | 227 W/m² | - |
| 1777415918 | 13.89° C | 44% | 1019.1 hPa | 0 mm | - | 726 W/m² | - |
| 1777415623 | 13.33° C | 45% | 1019.2 hPa | 0 mm | - | 613 W/m² | - |
| 1777415327 | 13.33° C | 45% | 1019.2 hPa | 0 mm | - | 135 W/m² | - |
| 1777415013 | 13.89° C | 43% | 1019.2 hPa | 0 mm | - | 132 W/m² | - |
* Rain latest hour (hover to see other rain measurements)
** Current wind speed in m/s (hover to see current wind gust speed)